Terminal Aerodrome Forecast
Issued by NWS

Home | Current Version | Previous Version | Text Only | Print | Product List | Glossary On
Versions: 1 2 3 4 5 6 7 8 9 10 11 12 13
000
FTUS45 KTFX 050520
TAFGTF
TAF
KGTF 050520Z 0506/0606 35010KT P6SM SCT050 BKN120
      TEMPO 0507/0510 VRB20G40KT -TSRA BKN050CB
     FM051100 02008KT P6SM -SHRA BKN050
     FM051700 03008KT P6SM SCT070 BKN120=

USA.gov is the U.S. government's official web portal to all federal, state and local government web resources and services.